createdAt,value
2017-11-08T00:00:20.793Z,11.10
2017-11-08T00:02:48.334Z,13.48
2017-11-08T00:05:15.815Z,7.82
2017-11-08T00:07:43.537Z,9.80
2017-11-08T00:10:11.072Z,12.37
2017-11-08T00:12:38.650Z,12.13
2017-11-08T00:15:06.968Z,9.88
2017-11-08T00:17:34.500Z,14.50
2017-11-08T00:20:02.031Z,13.50
2017-11-08T00:22:29.514Z,11.77
2017-11-08T00:24:58.734Z,12.50
2017-11-08T00:27:26.275Z,10.85
2017-11-08T00:29:54.592Z,10.07
2017-11-08T00:32:22.084Z,9.70
2017-11-08T00:34:50.388Z,10.18
2017-11-08T00:37:17.878Z,14.50
2017-11-08T00:39:45.359Z,11.00
2017-11-08T00:42:12.841Z,9.10
2017-11-08T00:44:40.460Z,8.32
2017-11-08T00:47:07.947Z,7.45
2017-11-08T00:49:35.421Z,11.20
2017-11-08T00:52:02.972Z,9.95
2017-11-08T00:54:30.475Z,10.93
2017-11-08T00:56:57.958Z,11.35
2017-11-08T00:59:25.432Z,10.27
2017-11-08T01:01:52.923Z,8.70
2017-11-08T01:04:21.160Z,9.10
2017-11-08T01:06:48.634Z,12.63
2017-11-08T01:09:16.896Z,11.48
2017-11-08T01:11:44.430Z,8.02
2017-11-08T01:14:11.903Z,10.60
2017-11-08T01:16:39.447Z,10.68
2017-11-08T01:19:06.966Z,18.60
2017-11-08T01:21:46.284Z,14.48
2017-11-08T01:24:18.055Z,15.23
2017-11-08T01:26:46.508Z,12.52
2017-11-08T01:29:14.824Z,10.30
2017-11-08T01:31:42.328Z,11.65
2017-11-08T01:34:09.830Z,10.27
2017-11-08T01:36:38.191Z,11.77
2017-11-08T01:39:12.403Z,11.48
2017-11-08T01:41:46.284Z,12.60
2017-11-08T01:44:13.773Z,9.45
2017-11-08T01:46:42.056Z,10.68
2017-11-08T01:49:10.326Z,11.70
2017-11-08T01:51:38.690Z,7.32
2017-11-08T01:54:06.251Z,9.75
2017-11-08T01:56:34.647Z,12.63
2017-11-08T01:59:03.023Z,13.85
2017-11-08T02:01:30.672Z,9.68
2017-11-08T02:03:59.036Z,13.07
2017-11-08T02:06:26.572Z,10.05
2017-11-08T02:08:54.087Z,9.32
2017-11-08T02:11:21.648Z,13.60
2017-11-08T02:13:49.922Z,7.90
2017-11-08T02:16:18.203Z,12.95
2017-11-08T02:18:49.602Z,9.90
2017-11-08T02:21:17.163Z,16.17
2017-11-08T02:23:45.503Z,8.35
2017-11-08T02:26:13.006Z,11.02
2017-11-08T02:28:40.493Z,13.25
2017-11-08T02:31:07.973Z,11.75
2017-11-08T02:33:47.914Z,15.25
2017-11-08T02:36:15.681Z,12.43
2017-11-08T02:38:43.185Z,12.98
2017-11-08T02:41:10.686Z,12.43
2017-11-08T02:43:38.152Z,18.65
2017-11-08T02:46:07.551Z,13.80
2017-11-08T02:48:35.016Z,15.48
2017-11-08T02:51:02.610Z,12.98
2017-11-08T02:53:31.035Z,13.05
2017-11-08T02:55:58.517Z,17.00
2017-11-08T02:58:26.037Z,15.52
2017-11-08T03:00:53.532Z,10.15
2017-11-08T03:03:21.039Z,13.48
2017-11-08T03:05:48.528Z,20.20
2017-11-08T03:08:16.000Z,14.57
2017-11-08T03:10:43.500Z,14.80
2017-11-08T03:13:11.085Z,15.23
2017-11-08T03:15:38.565Z,15.98
2017-11-08T03:18:06.828Z,23.20
2017-11-08T03:20:34.307Z,22.40
2017-11-08T03:23:02.341Z,13.75
2017-11-08T03:25:30.003Z,17.45
2017-11-08T03:27:57.499Z,21.60
2017-11-08T03:30:25.041Z,17.42
2017-11-08T03:32:53.273Z,21.25
2017-11-08T03:35:21.017Z,18.45
2017-11-08T03:37:48.684Z,22.08
2017-11-08T03:40:16.215Z,18.75
2017-11-08T03:42:43.698Z,21.37
2017-11-08T03:45:11.169Z,23.55
2017-11-08T03:47:38.808Z,22.02
2017-11-08T03:50:06.400Z,20.88
2017-11-08T03:52:33.914Z,22.20
2017-11-08T03:55:01.415Z,19.92
2017-11-08T03:57:28.898Z,19.90
2017-11-08T03:59:57.193Z,19.98
2017-11-08T04:02:25.493Z,19.80
2017-11-08T04:04:52.966Z,20.83
2017-11-08T04:07:20.455Z,19.70
2017-11-08T04:09:48.724Z,25.17
2017-11-08T04:12:16.270Z,19.20
2017-11-08T04:14:43.754Z,24.60
2017-11-08T04:17:12.026Z,26.70
2017-11-08T04:19:39.529Z,25.00
2017-11-08T04:22:07.058Z,25.42
2017-11-08T04:24:34.570Z,22.92
2017-11-08T04:27:02.103Z,25.60
2017-11-08T04:29:29.619Z,22.00
2017-11-08T04:31:57.159Z,25.73
2017-11-08T04:34:24.748Z,22.60
2017-11-08T04:36:52.303Z,29.00
2017-11-08T04:39:19.791Z,22.25
2017-11-08T04:41:47.315Z,44.55
2017-11-08T04:44:14.896Z,27.75
2017-11-08T04:46:42.765Z,29.87
2017-11-08T04:49:10.375Z,22.33
2017-11-08T04:51:37.913Z,27.73
2017-11-08T04:54:05.505Z,23.60
2017-11-08T04:56:33.089Z,26.12
2017-11-08T04:59:00.643Z,31.70
2017-11-08T05:01:28.159Z,25.37
2017-11-08T05:03:55.679Z,32.22
2017-11-08T05:06:23.231Z,30.50
2017-11-08T05:08:50.792Z,26.90
2017-11-08T05:11:18.660Z,38.25
2017-11-08T05:13:46.213Z,32.70
2017-11-08T05:16:13.742Z,39.47
2017-11-08T05:18:41.339Z,36.97
2017-11-08T05:21:08.972Z,39.90
2017-11-08T05:23:37.034Z,39.88
2017-11-08T05:26:04.674Z,52.88
2017-11-08T05:28:32.191Z,48.10
2017-11-08T05:30:59.752Z,40.72
2017-11-08T05:33:27.252Z,43.78
2017-11-08T05:35:54.751Z,42.65
2017-11-08T05:38:22.291Z,42.53
2017-11-08T05:40:49.851Z,45.38
2017-11-08T05:43:17.345Z,40.72
2017-11-08T05:45:44.866Z,38.90
2017-11-08T05:48:12.409Z,45.15
2017-11-08T05:50:39.975Z,45.65
2017-11-08T05:53:07.514Z,36.90
2017-11-08T05:55:35.143Z,41.20
2017-11-08T05:58:02.670Z,41.70
2017-11-08T06:00:30.145Z,52.47
2017-11-08T06:02:57.628Z,43.28
2017-11-08T06:05:25.244Z,38.97
2017-11-08T06:07:56.439Z,43.35
2017-11-08T06:10:23.976Z,39.75
2017-11-08T06:12:51.549Z,48.65
2017-11-08T06:15:19.076Z,38.20
2017-11-08T06:17:46.656Z,48.28
2017-11-08T06:20:15.221Z,47.88
2017-11-08T06:22:42.748Z,40.55
2017-11-08T06:25:10.252Z,47.33
2017-11-08T06:27:39.252Z,40.70
2017-11-08T06:30:08.684Z,42.90
2017-11-08T06:32:36.301Z,41.90
2017-11-08T06:35:03.866Z,39.63
2017-11-08T06:37:31.468Z,45.60
2017-11-08T06:39:59.083Z,36.47
2017-11-08T06:42:27.195Z,41.88
2017-11-08T06:44:54.707Z,44.35
2017-11-08T06:47:24.880Z,45.12
2017-11-08T06:49:52.614Z,35.83
2017-11-08T06:52:20.155Z,44.25
2017-11-08T06:54:47.666Z,41.13
2017-11-08T06:57:15.162Z,37.33
2017-11-08T06:59:42.676Z,36.95
2017-11-08T07:02:10.158Z,48.20
2017-11-08T07:04:37.646Z,44.92
2017-11-08T07:07:05.195Z,42.28
2017-11-08T07:09:32.739Z,37.78
2017-11-08T07:12:00.269Z,36.97
2017-11-08T07:14:28.434Z,35.85
2017-11-08T07:16:56.112Z,47.42
2017-11-08T07:19:23.619Z,39.20
2017-11-08T07:21:51.102Z,39.38
2017-11-08T07:24:18.602Z,38.13
2017-11-08T07:26:46.096Z,44.47
2017-11-08T07:29:13.767Z,45.72
2017-11-08T07:31:41.593Z,44.13
2017-11-08T07:34:10.879Z,43.75
2017-11-08T07:36:38.366Z,45.97
2017-11-08T07:39:05.912Z,45.63
2017-11-08T07:41:33.483Z,51.15
2017-11-08T07:44:01.069Z,46.55
2017-11-08T07:46:28.674Z,46.28
2017-11-08T07:48:56.194Z,48.35
2017-11-08T07:51:23.735Z,44.10
2017-11-08T07:53:51.609Z,45.30
2017-11-08T07:56:20.971Z,51.45
2017-11-08T07:58:48.539Z,52.62
2017-11-08T08:01:16.117Z,46.33
2017-11-08T08:03:43.682Z,43.92
2017-11-08T08:06:11.298Z,46.60
2017-11-08T08:08:40.570Z,46.35
2017-11-08T08:14:03.901Z,44.35
2017-11-08T08:16:32.331Z,49.75
2017-11-08T08:19:01.330Z,48.40
2017-11-08T08:24:58.813Z,45.72
2017-11-08T08:27:26.425Z,50.42
2017-11-08T08:29:54.330Z,56.80
2017-11-08T08:32:22.052Z,56.00
2017-11-08T08:34:49.668Z,50.33
2017-11-08T08:37:17.295Z,60.05
2017-11-08T08:39:45.096Z,52.75
2017-11-08T08:42:15.704Z,49.22
2017-11-08T08:44:46.798Z,50.30
2017-11-08T08:47:14.978Z,53.05
2017-11-08T08:49:42.548Z,55.10
2017-11-08T08:52:12.207Z,49.58
2017-11-08T08:54:41.640Z,54.13
2017-11-08T08:57:09.258Z,49.10
2017-11-08T08:59:36.754Z,58.53
2017-11-08T09:02:10.098Z,58.10
2017-11-08T09:04:37.635Z,54.20
2017-11-08T09:07:05.181Z,48.35
2017-11-08T09:09:32.698Z,54.92
2017-11-08T09:12:00.237Z,52.42
2017-11-08T09:14:28.997Z,51.78
2017-11-08T09:16:58.844Z,53.08
2017-11-08T09:19:40.989Z,50.45
2017-11-08T09:22:09.918Z,67.95
2017-11-08T09:24:38.762Z,54.47
2017-11-08T09:27:06.347Z,58.45
2017-11-08T09:29:34.697Z,58.47
2017-11-08T09:32:02.783Z,54.75
2017-11-08T09:34:31.024Z,58.42
2017-11-08T09:36:58.824Z,53.58
2017-11-08T09:39:26.431Z,56.67
2017-11-08T09:42:05.776Z,55.47
2017-11-08T09:44:33.298Z,62.67
2017-11-08T09:47:00.826Z,62.42
2017-11-08T09:49:28.409Z,57.92
2017-11-08T09:51:56.024Z,53.42
2017-11-08T09:54:23.525Z,57.58
2017-11-08T09:56:51.004Z,59.58
2017-11-08T09:59:18.542Z,59.75
2017-11-08T10:01:46.857Z,59.05
2017-11-08T10:04:15.639Z,58.13
2017-11-08T10:06:45.333Z,63.40
2017-11-08T10:09:12.946Z,59.85
2017-11-08T10:11:46.168Z,59.72
2017-11-08T10:14:14.635Z,50.40
2017-11-08T10:16:49.261Z,56.17
2017-11-08T10:19:22.136Z,56.40
2017-11-08T10:21:50.571Z,56.92
2017-11-08T10:24:18.312Z,60.10
2017-11-08T10:26:45.863Z,59.72
2017-11-08T10:29:13.535Z,55.10
2017-11-08T10:31:42.044Z,64.68
2017-11-08T10:34:09.574Z,51.50
2017-11-08T10:36:37.081Z,61.22
2017-11-08T10:39:04.614Z,56.42
2017-11-08T10:41:32.211Z,56.67
2017-11-08T10:43:59.769Z,62.15
2017-11-08T10:46:27.447Z,52.85
2017-11-08T10:48:55.092Z,55.65
2017-11-08T10:51:22.733Z,58.35
2017-11-08T10:53:52.193Z,56.53
2017-11-08T10:56:19.759Z,67.95
2017-11-08T10:58:47.309Z,61.83
2017-11-08T11:01:21.432Z,61.22
2017-11-08T11:03:51.395Z,64.57
2017-11-08T11:06:18.973Z,60.78
2017-11-08T11:08:46.532Z,66.15
2017-11-08T11:11:14.036Z,61.33
2017-11-08T11:13:47.715Z,58.55
2017-11-08T11:16:18.092Z,64.32
2017-11-08T11:18:45.669Z,58.00
2017-11-08T11:21:13.242Z,59.13
2017-11-08T11:23:41.759Z,60.70
2017-11-08T11:26:09.308Z,58.83
2017-11-08T11:28:36.876Z,53.47
2017-11-08T11:31:04.388Z,59.65
2017-11-08T11:33:32.113Z,61.58
2017-11-08T11:35:59.622Z,61.85
2017-11-08T11:38:28.911Z,62.95
2017-11-08T11:40:56.461Z,58.65
2017-11-08T11:43:24.073Z,69.97
2017-11-08T11:45:51.603Z,58.55
2017-11-08T11:48:19.132Z,58.15
2017-11-08T11:50:46.665Z,56.60
2017-11-08T11:53:14.244Z,53.78
2017-11-08T11:55:41.797Z,53.17
2017-11-08T11:58:09.386Z,57.80
2017-11-08T12:00:36.961Z,53.65
2017-11-08T12:03:04.451Z,53.15
2017-11-08T12:05:46.740Z,45.22
2017-11-08T12:08:14.440Z,47.17
2017-11-08T12:10:42.189Z,51.05
2017-11-08T13:52:15.937Z,36.70
2017-11-08T13:54:43.512Z,43.63
2017-11-08T13:57:11.027Z,41.17
2017-11-08T13:59:38.591Z,39.45
2017-11-08T14:02:06.095Z,37.00
2017-11-08T14:04:33.649Z,40.33
2017-11-08T14:07:01.269Z,37.50
2017-11-08T14:09:28.886Z,39.08
2017-11-08T14:11:56.377Z,44.00
2017-11-08T14:14:23.901Z,39.60
2017-11-08T14:16:51.478Z,32.28
2017-11-08T14:19:19.752Z,36.28
2017-11-08T14:21:47.292Z,34.10
2017-11-08T14:24:14.852Z,34.60
2017-11-08T14:26:42.367Z,42.38
2017-11-08T14:29:09.936Z,34.40
2017-11-08T14:31:37.534Z,38.50
2017-11-08T14:34:19.520Z,37.05
2017-11-08T14:36:48.960Z,35.28
2017-11-08T14:39:16.706Z,39.92
2017-11-08T14:41:50.837Z,37.17
2017-11-08T14:44:18.993Z,43.28
2017-11-08T14:46:46.665Z,36.88
2017-11-08T14:49:14.324Z,36.60
2017-11-08T14:51:41.979Z,35.90
2017-11-08T14:54:09.673Z,40.63
2017-11-08T14:56:37.256Z,36.85
2017-11-08T14:59:04.989Z,38.80
2017-11-08T15:01:33.767Z,36.00
2017-11-08T15:04:01.625Z,40.20
2017-11-08T15:06:29.414Z,40.28
2017-11-08T15:08:57.365Z,37.58
2017-11-08T15:11:24.891Z,43.25
2017-11-08T15:13:52.578Z,42.25
2017-11-08T15:16:20.066Z,43.10
2017-11-08T15:18:47.624Z,44.58
2017-11-08T15:21:15.193Z,44.65
2017-11-08T15:23:42.719Z,38.67
2017-11-08T15:26:10.304Z,39.03
2017-11-08T15:28:37.841Z,45.67
2017-11-08T15:31:06.244Z,38.95
2017-11-08T15:33:34.493Z,45.20
2017-11-08T15:36:02.062Z,44.28
2017-11-08T15:38:29.611Z,40.00
2017-11-08T15:40:57.202Z,42.67
2017-11-08T15:43:26.876Z,38.63
2017-11-08T15:45:54.464Z,50.10
2017-11-08T15:48:21.998Z,43.13
2017-11-08T15:50:49.564Z,37.80
2017-11-08T15:53:17.148Z,41.42
2017-11-08T15:55:44.676Z,42.95
2017-11-08T15:58:12.191Z,43.05
2017-11-08T16:00:40.266Z,40.78
2017-11-08T16:03:08.531Z,42.65
2017-11-08T16:05:36.057Z,42.70
2017-11-08T16:08:07.313Z,40.17
2017-11-08T16:10:34.862Z,43.38
2017-11-08T16:13:17.106Z,39.88
2017-11-08T16:15:44.677Z,46.72
2017-11-08T16:18:12.184Z,40.65
2017-11-08T16:20:39.739Z,45.70
2017-11-08T16:23:07.268Z,44.90
2017-11-08T16:25:34.943Z,46.92
2017-11-08T16:28:02.471Z,44.10
2017-11-08T16:30:29.960Z,40.63
2017-11-08T16:32:57.488Z,42.15
2017-11-08T16:35:25.256Z,40.63
2017-11-08T16:37:53.592Z,40.63
2017-11-08T16:40:37.235Z,39.70
2017-11-08T16:43:04.984Z,39.85
2017-11-08T16:45:32.670Z,42.45
2017-11-08T16:48:10.461Z,44.83
2017-11-08T16:50:41.072Z,41.30
2017-11-08T16:53:14.739Z,40.17
2017-11-08T16:55:47.509Z,42.33
2017-11-08T16:58:23.686Z,42.42
2017-11-08T17:00:51.687Z,47.85
2017-11-08T17:03:19.560Z,38.72
2017-11-08T17:05:47.941Z,41.55
2017-11-08T17:08:22.540Z,43.63
2017-11-08T17:10:50.602Z,42.50
2017-11-08T17:13:18.342Z,44.30
2017-11-08T17:15:45.915Z,39.83
2017-11-08T17:18:13.442Z,41.67
2017-11-08T17:20:41.122Z,42.05
2017-11-08T17:23:08.651Z,44.35
2017-11-08T17:25:36.301Z,47.40
2017-11-08T17:28:03.876Z,46.53
2017-11-08T17:30:31.575Z,40.08
2017-11-08T17:32:59.161Z,40.83
2017-11-08T17:35:26.975Z,43.65
2017-11-08T17:37:54.699Z,43.67
2017-11-08T17:40:22.355Z,45.15
2017-11-08T17:42:49.964Z,44.10
2017-11-08T17:45:17.549Z,42.50
2017-11-08T17:47:45.178Z,37.03
2017-11-08T17:50:13.989Z,45.03
2017-11-08T17:52:41.884Z,43.53
2017-11-08T17:55:09.571Z,42.97
2017-11-08T17:57:37.793Z,43.10
2017-11-08T18:00:05.488Z,41.42
2017-11-08T18:02:33.173Z,46.72
2017-11-08T18:05:00.825Z,52.72
2017-11-08T18:07:28.472Z,54.60
2017-11-08T18:09:56.015Z,46.75
2017-11-08T18:12:23.677Z,44.00
2017-11-08T18:14:51.203Z,46.85
2017-11-08T18:17:18.794Z,43.40
2017-11-08T18:19:46.771Z,46.20
2017-11-08T18:22:14.438Z,47.47
2017-11-08T18:24:42.163Z,45.50
2017-11-08T18:27:09.746Z,46.17
2017-11-08T18:29:37.413Z,54.17
2017-11-08T18:32:05.246Z,51.17
2017-11-08T18:34:32.862Z,53.65
2017-11-08T18:37:00.412Z,51.03
2017-11-08T18:39:28.100Z,51.05
2017-11-08T18:41:55.675Z,48.53
2017-11-08T18:44:23.314Z,49.60
2017-11-08T18:46:51.145Z,51.53
2017-11-08T18:49:18.741Z,49.97
2017-11-08T18:51:46.431Z,51.30
2017-11-08T18:54:14.196Z,50.30
2017-11-08T18:56:41.991Z,54.28
2017-11-08T18:59:09.625Z,51.05
2017-11-08T19:01:37.192Z,52.45
2017-11-08T19:04:04.956Z,51.80
2017-11-08T19:06:32.565Z,49.67
2017-11-08T19:09:00.709Z,52.67
2017-11-08T19:11:27.797Z,49.40
2017-11-08T19:13:55.410Z,55.17
2017-11-08T19:16:22.942Z,51.67
2017-11-08T19:18:50.600Z,54.20
2017-11-08T19:21:18.232Z,50.10
2017-11-08T19:23:45.811Z,58.10
2017-11-08T19:26:13.413Z,53.00
2017-11-08T19:28:41.762Z,53.20
2017-11-08T19:31:09.289Z,55.85
2017-11-08T19:33:36.822Z,52.03
2017-11-08T19:36:06.347Z,50.25
2017-11-08T19:38:33.877Z,54.20
2017-11-08T19:41:01.493Z,52.30
2017-11-08T19:43:29.004Z,53.53
2017-11-08T19:45:57.344Z,53.25
2017-11-08T19:48:25.061Z,50.55
2017-11-08T19:50:52.609Z,54.65
2017-11-08T19:53:20.991Z,55.03
2017-11-08T19:55:48.560Z,59.00
2017-11-08T19:58:16.037Z,51.00
2017-11-08T20:00:43.602Z,54.80
2017-11-08T20:03:11.194Z,59.30
2017-11-08T20:05:38.709Z,54.75
2017-11-08T20:08:06.230Z,50.83
2017-11-08T20:10:33.731Z,49.40
2017-11-08T20:13:01.283Z,57.90
2017-11-08T20:15:28.774Z,54.53
2017-11-08T20:17:56.391Z,57.58
2017-11-08T20:20:23.952Z,54.10
2017-11-08T20:22:51.546Z,58.83
2017-11-08T20:25:20.768Z,56.70
2017-11-08T20:27:49.182Z,56.10
2017-11-08T20:30:16.784Z,60.58
2017-11-08T20:32:44.452Z,55.20
2017-11-08T20:35:11.959Z,58.20
2017-11-08T20:37:39.665Z,58.50
2017-11-08T20:40:07.284Z,55.45
2017-11-08T20:42:34.792Z,58.17
2017-11-08T20:45:02.295Z,59.60
2017-11-08T20:47:29.766Z,57.35
2017-11-08T20:49:57.320Z,63.63
2017-11-08T20:52:25.633Z,59.95
2017-11-08T20:54:53.164Z,63.75
2017-11-08T20:57:20.706Z,56.47
2017-11-08T20:59:48.240Z,60.88
2017-11-08T21:02:15.737Z,62.83
2017-11-08T21:04:43.236Z,59.13
2017-11-08T21:07:11.524Z,57.58
2017-11-08T21:09:39.103Z,56.33
2017-11-08T21:12:07.359Z,51.78
2017-11-08T21:14:34.999Z,59.80
2017-11-08T21:17:02.568Z,58.38
2017-11-08T21:19:30.078Z,58.33
2017-11-08T21:21:57.587Z,59.13
2017-11-08T21:24:25.075Z,59.17
2017-11-08T21:29:33.633Z,64.57
2017-11-08T21:32:01.174Z,64.87
2017-11-08T21:34:28.730Z,59.95
2017-11-08T21:36:56.229Z,68.05
2017-11-08T21:39:23.721Z,56.80
2017-11-08T21:41:51.323Z,57.17
2017-11-08T21:44:19.796Z,54.97
2017-11-08T21:46:47.323Z,60.67
2017-11-08T21:49:14.878Z,64.25
2017-11-08T21:51:42.422Z,62.88
2017-11-08T21:54:10.777Z,62.67
2017-11-08T21:56:38.869Z,54.83
2017-11-08T21:59:07.749Z,60.65
2017-11-08T22:01:36.316Z,59.92
2017-11-08T22:04:04.033Z,64.78
2017-11-08T22:06:31.680Z,60.83
2017-11-08T22:08:59.379Z,59.25
2017-11-08T22:11:27.003Z,63.33
2017-11-08T22:13:54.569Z,61.90
2017-11-08T22:16:22.118Z,65.25
2017-11-08T22:18:49.665Z,58.50
2017-11-08T22:21:17.191Z,59.90
2017-11-08T22:23:44.897Z,63.85
2017-11-08T22:26:13.224Z,64.60
2017-11-08T22:28:40.744Z,66.37
2017-11-08T22:31:08.340Z,61.42
2017-11-08T22:33:37.724Z,60.63
2017-11-08T22:36:05.310Z,57.33
2017-11-08T22:38:32.868Z,63.75
2017-11-08T22:41:00.400Z,62.20
2017-11-08T22:43:28.054Z,57.22
2017-11-08T22:45:55.952Z,57.90
2017-11-08T22:48:23.719Z,57.28
2017-11-08T22:50:51.315Z,64.22
2017-11-08T22:53:19.031Z,59.40
2017-11-08T22:55:46.596Z,59.25
2017-11-08T22:58:14.093Z,59.70
2017-11-08T23:00:41.702Z,62.65
2017-11-08T23:03:09.323Z,61.13
2017-11-08T23:05:36.892Z,63.10
2017-11-08T23:08:04.493Z,56.17
2017-11-08T23:10:32.053Z,58.67
2017-11-08T23:12:59.651Z,58.30
2017-11-08T23:15:29.184Z,63.40
2017-11-08T23:17:56.817Z,59.10
2017-11-08T23:20:24.392Z,61.05
2017-11-08T23:22:52.063Z,61.05
2017-11-08T23:25:19.726Z,60.80
2017-11-08T23:27:47.407Z,58.85
2017-11-08T23:30:14.982Z,56.83
2017-11-08T23:32:42.533Z,58.87
2017-11-08T23:35:10.196Z,63.42
2017-11-08T23:37:37.784Z,60.63
2017-11-08T23:40:05.409Z,59.35
2017-11-08T23:42:33.063Z,62.70
2017-11-08T23:45:00.934Z,65.12
2017-11-08T23:47:28.520Z,61.75
2017-11-08T23:49:56.078Z,56.10
2017-11-08T23:52:23.692Z,58.08
2017-11-08T23:54:51.368Z,58.55
2017-11-08T23:57:19.060Z,55.03
2017-11-08T23:59:46.689Z,57.67
